Buoy 46930

sailwx.info

Track history (hours):
 
Tides and Currents Weather Stations Pressure Air Temp Water Temp Dewpoint Dewpoint Depression Visibility Wind Speed Wind Dir Waves Ship Positions

Drifting buoy 46930

Last reported at 2014-Sep-01 05:00 UTC. Time now 2014-Sep-01 11:17 UTC.
Position N 23°33' W 119°14'.

Water temperature 25.7 ° C

Date/timePositionNaut miles runAvg speedWind from/ knotsBaromVisibWave heightAir tempDewpointWater temp
2014-Sep-01 05:00N 23°33' W 119°14'1 0.6 25.7
2014-Sep-01 04:00N 23°33' W 119°13'1 1.0 25.7
2014-Sep-01 03:00N 23°33' W 119°14'0 0.2 25.7
2014-Sep-01 01:00N 23°34' W 119°14'1 0.5 25.8
2014-Aug-31 23:00N 23°33' W 119°14'3 0.4 25.8
2014-Aug-31 16:00N 23°34' W 119°12'1 1.2 25.6
2014-Aug-31 15:00N 23°34' W 119°11'1 0.6 25.6
2014-Aug-31 13:00N 23°35' W 119°10'1 0.6 25.6
2014-Aug-31 12:00N 23°36' W 119°10'4 1.4 25.6
2014-Aug-31 09:00N 23°40' W 119°10'1 0.3 25.6
2014-Aug-31 06:00N 23°41' W 119°10'1 0.6 25.6
2014-Aug-31 05:00N 23°41' W 119°11'1 0.4 25.7
2014-Aug-31 03:00N 23°42' W 119°12'1 0.4 25.7
2014-Aug-31 01:00N 23°42' W 119°12'2 0.6 25.7
2014-Aug-30 21:00N 23°42' W 119°15'2 1.0 25.7
2014-Aug-30 19:00N 23°41' W 119°13'0 0.0 25.7
2014-Aug-30 18:00N 23°41' W 119°13'0 0.0 25.7
2014-Aug-30 17:00N 23°41' W 119°13'2 1.8 25.6
2014-Aug-30 16:00N 23°41' W 119°11'1 0.4 25.6
2014-Aug-30 13:00N 23°41' W 119°09'0 0.4 25.6
2014-Aug-30 12:00N 23°42' W 119°09'3 3.5 25.6
2014-Aug-30 11:00N 23°44' W 119°06'0 0.0 25.6
2014-Aug-30 10:00N 23°44' W 119°06'3 0.5 25.6
2014-Aug-30 05:00N 23°46' W 119°05'1 1.3 25.7
2014-Aug-30 04:00N 23°47' W 119°05'0 0.0 25.7
2014-Aug-30 03:00N 23°47' W 119°05'2 1.2 25.7
2014-Aug-30 01:00N 23°50' W 119°06'0 0.1 25.8
2014-Aug-30 00:00N 23°50' W 119°06'1 1.1 25.8
2014-Aug-29 23:00N 23°50' W 119°07'1 0.8 25.8
2014-Aug-29 22:00N 23°51' W 119°06'1 0.9 25.8
2014-Aug-29 21:00N 23°51' W 119°07'1 0.5 25.8
2014-Aug-29 19:00N 23°50' W 119°08'1 0.4 25.8
2014-Aug-29 17:00N 23°51' W 119°09'1 0.6 25.7
2014-Aug-29 16:00N 23°50' W 119°09'0 0.0 25.6
2014-Aug-29 15:00N 23°50' W 119°09'0 0.4 25.6
2014-Aug-29 14:00N 23°50' W 119°09'1 0.3 25.6
2014-Aug-29 12:00N 23°50' W 119°08'1 0.7 25.7
2014-Aug-29 11:00N 23°49' W 119°08'0 0.2 25.8
2014-Aug-29 10:00N 23°49' W 119°08'1 0.9 26.0
2014-Aug-29 09:00N 23°49' W 119°07'0 0.0 26.1
2014-Aug-29 08:00N 23°49' W 119°07'1 1.2 26.2
2014-Aug-29 07:00N 23°50' W 119°06'0 0.2 26.3
2014-Aug-29 06:00N 23°50' W 119°06'1 0.8 26.4
2014-Aug-29 05:00N 23°50' W 119°05'2 2.0 26.5
2014-Aug-29 04:00N 23°51' W 119°03'0 0.0 26.8
2014-Aug-29 02:00N 23°51' W 119°03'4 1.8 27.3
2014-Aug-29 00:00N 23°54' W 119°02'0 0.0 27.5
2014-Aug-28 23:00N 23°54' W 119°02'1 0.5 27.3
2014-Aug-28 22:00N 23°55' W 119°02'2 1.6 27.0
2014-Aug-28 21:00N 23°56' W 119°03'0 0.0 26.6
2014-Aug-28 20:00N 23°56' W 119°03'1 0.4 26.2
2014-Aug-28 18:00N 23°57' W 119°04'2 0.5 25.6
2014-Aug-28 14:00N 23°57' W 119°06'0 0.2 25.3
2014-Aug-28 12:00N 23°56' W 119°06'1 0.5 25.3
2014-Aug-28 11:00N 23°56' W 119°07'1 0.4 25.3
2014-Aug-28 07:00N 23°55' W 119°06'0 0.2 25.3
2014-Aug-28 06:00N 23°55' W 119°06'1 0.5 25.4
2014-Aug-28 04:00N 23°54' W 119°05'0 0.0 25.4
2014-Aug-28 03:00N 23°54' W 119°05'1 0.5 25.4
2014-Aug-28 00:00N 23°54' W 119°03'1 0.7 25.4
2014-Aug-27 23:00N 23°55' W 119°03'0 0.4 25.4
2014-Aug-27 22:00N 23°55' W 119°03'1 0.5 25.4
2014-Aug-27 21:00N 23°55' W 119°02'0 0.0 25.4
2014-Aug-27 20:00N 23°55' W 119°02'1 1.3 25.3
2014-Aug-27 19:00N 23°56' W 119°02'1 0.8 25.3
2014-Aug-27 18:00N 23°56' W 119°01'0 0.0 25.3
2014-Aug-27 17:00N 23°56' W 119°01'3 0.7 25.2
2014-Aug-27 13:00N 23°58' W 119°03'1 0.6 25.2
2014-Aug-27 11:00N 23°59' W 119°04'0 0.0 25.2
2014-Aug-27 10:00N 23°59' W 119°04'1 1.0 25.2
2014-Aug-27 09:00N 23°59' W 119°05'4 0.9 25.2
2014-Aug-27 05:00N 23°57' W 119°08'0 0.0 25.3
2014-Aug-27 04:00N 23°57' W 119°08'1 0.7 25.3
2014-Aug-27 03:00N 23°56' W 119°08'4 0.8 25.3
2014-Aug-26 22:00N 23°52' W 119°08'1 1.5 25.3
2014-Aug-26 21:00N 23°51' W 119°07'0 0.2 25.3
2014-Aug-26 20:00N 23°50' W 119°07'2 1.1 25.4
2014-Aug-26 18:00N 23°49' W 119°05'0 0.4 25.4
2014-Aug-26 17:00N 23°49' W 119°05'1 0.9 25.4
2014-Aug-26 16:00N 23°48' W 119°04'0 0.4 25.4
2014-Aug-26 15:00N 23°48' W 119°04'1 0.9 25.5
2014-Aug-26 14:00N 23°48' W 119°03'0 0.3 25.5
2014-Aug-26 13:00N 23°47' W 119°03'1 1.4 25.6
2014-Aug-26 12:00N 23°47' W 119°02'0 0.3 25.6
2014-Aug-26 11:00N 23°47' W 119°01'1 0.2 25.6
2014-Aug-26 08:00N 23°46' W 119°01'2 1.0 25.7
2014-Aug-26 06:00N 23°46' W 118°59'3 0.6 25.7
2014-Aug-26 01:00N 23°46' W 118°55'1 1.0 25.9
2014-Aug-26 00:00N 23°47' W 118°55'1 0.5 25.9
2014-Aug-25 22:00N 23°48' W 118°54'1 0.3 25.9
2014-Aug-25 20:00N 23°47' W 118°55'1 0.7 25.8
2014-Aug-25 19:00N 23°48' W 118°55'0 0.4 25.8
2014-Aug-25 18:00N 23°48' W 118°55'0 0.2 25.8
2014-Aug-25 17:00N 23°48' W 118°55'0 0.0 25.7
2014-Aug-25 16:00N 23°48' W 118°55'1 0.3 25.7
2014-Aug-25 14:00N 23°48' W 118°55'1 0.9 25.7
2014-Aug-25 13:00N 23°47' W 118°54'0 0.3 25.7
2014-Aug-25 12:00N 23°47' W 118°54'0 0.0 25.7
2014-Aug-25 11:00N 23°47' W 118°54'1 0.2 25.7
2014-Aug-25 05:00N 23°47' W 118°53'1 0.7 25.8
2014-Aug-25 04:00N 23°47' W 118°53'0 0.0 25.9
2014-Aug-25 03:00N 23°47' W 118°53'1 0.1 26.0
2014-Aug-24 23:00N 23°47' W 118°52'0 0.4 26.2
2014-Aug-24 22:00N 23°47' W 118°52'0 0.1 26.2
2014-Aug-24 19:00N 23°47' W 118°52'1 0.1 26.1
2014-Aug-24 15:00N 23°47' W 118°51'1 0.3 25.8
2014-Aug-24 13:00N 23°47' W 118°51'0 0.4 25.8
2014-Aug-24 12:00N 23°48' W 118°51'0 0.2 25.9
2014-Aug-24 11:00N 23°48' W 118°51'2 0.3 25.9
2014-Aug-24 06:00N 23°50' W 118°50'0 0.3 26.1
2014-Aug-24 05:00N 23°50' W 118°50'1 0.6 26.1
2014-Aug-24 04:00N 23°50' W 118°51'0 0.0 26.2
2014-Aug-24 03:00N 23°50' W 118°51'0 0.3 26.2
2014-Aug-24 02:00N 23°50' W 118°51'0 0.1 26.3
2014-Aug-24 01:00N 23°50' W 118°51'0 0.1 26.5
2014-Aug-24 00:00N 23°50' W 118°51'0 0.4 26.5
2014-Aug-23 23:00N 23°50' W 118°51'1 0.1 26.5
2014-Aug-23 17:00N 23°50' W 118°51'1 0.2 25.5
2014-Aug-23 12:00N 23°49' W 118°50'0 0.4 25.3
2014-Aug-23 11:00N 23°49' W 118°50'2 0.5 25.3
2014-Aug-23 06:00N 23°51' W 118°49'1 0.2 25.3
2014-Aug-23 02:00N 23°52' W 118°49'0 0.4 25.3
2014-Aug-23 01:00N 23°52' W 118°49'1 0.5 25.4
2014-Aug-22 23:00N 23°53' W 118°50'1 0.3 25.4
2014-Aug-22 21:00N 23°53' W 118°50'0 0.2 25.3
2014-Aug-22 19:00N 23°53' W 118°50'2 0.6 25.2
2014-Aug-22 16:00N 23°52' W 118°52'0 0.2 25.1
2014-Aug-22 14:00N 23°52' W 118°52'1 1.2 25.1
2014-Aug-22 13:00N 23°51' W 118°51'0 0.2 25.1
2014-Aug-22 12:00N 23°51' W 118°51'0 0.3 25.1
2014-Aug-22 11:00N 23°51' W 118°51'0 0.1 25.1
2014-Aug-22 09:00N 23°51' W 118°51'1 0.4 25.1
2014-Aug-22 06:00N 23°51' W 118°50'   25.1
Track history (hours):
 
Tides and Currents Weather Stations Pressure Air Temp Water Temp Dewpoint Dewpoint Depression Visibility Wind Speed Wind Dir Waves Ship Positions

Drifting buoy 46930

Last reported at 2014-Sep-01 05:00 UTC. Time now 2014-Sep-01 11:17 UTC.
Position N 23°33' W 119°14'.

Water temperature 25.7 ° C

Date/timePositionNaut miles runAvg speedWind from/ knotsBaromVisibWave heightAir tempDewpointWater temp
2014-Sep-01 05:00N 23°33' W 119°14'1 0.6 25.7
2014-Sep-01 04:00N 23°33' W 119°13'1 1.0 25.7
2014-Sep-01 03:00N 23°33' W 119°14'0 0.2 25.7
2014-Sep-01 01:00N 23°34' W 119°14'1 0.5 25.8
2014-Aug-31 23:00N 23°33' W 119°14'3 0.4 25.8
2014-Aug-31 16:00N 23°34' W 119°12'1 1.2 25.6
2014-Aug-31 15:00N 23°34' W 119°11'1 0.6 25.6
2014-Aug-31 13:00N 23°35' W 119°10'1 0.6 25.6
2014-Aug-31 12:00N 23°36' W 119°10'4 1.4 25.6
2014-Aug-31 09:00N 23°40' W 119°10'1 0.3 25.6
2014-Aug-31 06:00N 23°41' W 119°10'1 0.6 25.6
2014-Aug-31 05:00N 23°41' W 119°11'1 0.4 25.7
2014-Aug-31 03:00N 23°42' W 119°12'1 0.4 25.7
2014-Aug-31 01:00N 23°42' W 119°12'2 0.6 25.7
2014-Aug-30 21:00N 23°42' W 119°15'2 1.0 25.7
2014-Aug-30 19:00N 23°41' W 119°13'0 0.0 25.7
2014-Aug-30 18:00N 23°41' W 119°13'0 0.0 25.7
2014-Aug-30 17:00N 23°41' W 119°13'2 1.8 25.6
2014-Aug-30 16:00N 23°41' W 119°11'1 0.4 25.6
2014-Aug-30 13:00N 23°41' W 119°09'0 0.4 25.6
2014-Aug-30 12:00N 23°42' W 119°09'3 3.5 25.6
2014-Aug-30 11:00N 23°44' W 119°06'0 0.0 25.6
2014-Aug-30 10:00N 23°44' W 119°06'3 0.5 25.6
2014-Aug-30 05:00N 23°46' W 119°05'1 1.3 25.7
2014-Aug-30 04:00N 23°47' W 119°05'0 0.0 25.7
2014-Aug-30 03:00N 23°47' W 119°05'2 1.2 25.7
2014-Aug-30 01:00N 23°50' W 119°06'0 0.1 25.8
2014-Aug-30 00:00N 23°50' W 119°06'1 1.1 25.8
2014-Aug-29 23:00N 23°50' W 119°07'1 0.8 25.8
2014-Aug-29 22:00N 23°51' W 119°06'1 0.9 25.8
2014-Aug-29 21:00N 23°51' W 119°07'1 0.5 25.8
2014-Aug-29 19:00N 23°50' W 119°08'1 0.4 25.8
2014-Aug-29 17:00N 23°51' W 119°09'1 0.6 25.7
2014-Aug-29 16:00N 23°50' W 119°09'0 0.0 25.6
2014-Aug-29 15:00N 23°50' W 119°09'0 0.4 25.6
2014-Aug-29 14:00N 23°50' W 119°09'1 0.3 25.6
2014-Aug-29 12:00N 23°50' W 119°08'1 0.7 25.7
2014-Aug-29 11:00N 23°49' W 119°08'0 0.2 25.8
2014-Aug-29 10:00N 23°49' W 119°08'1 0.9 26.0
2014-Aug-29 09:00N 23°49' W 119°07'0 0.0 26.1
2014-Aug-29 08:00N 23°49' W 119°07'1 1.2 26.2
2014-Aug-29 07:00N 23°50' W 119°06'0 0.2 26.3
2014-Aug-29 06:00N 23°50' W 119°06'1 0.8 26.4
2014-Aug-29 05:00N 23°50' W 119°05'2 2.0 26.5
2014-Aug-29 04:00N 23°51' W 119°03'0 0.0 26.8
2014-Aug-29 02:00N 23°51' W 119°03'4 1.8 27.3
2014-Aug-29 00:00N 23°54' W 119°02'0 0.0 27.5
2014-Aug-28 23:00N 23°54' W 119°02'1 0.5 27.3
2014-Aug-28 22:00N 23°55' W 119°02'2 1.6 27.0
2014-Aug-28 21:00N 23°56' W 119°03'0 0.0 26.6
2014-Aug-28 20:00N 23°56' W 119°03'1 0.4 26.2
2014-Aug-28 18:00N 23°57' W 119°04'2 0.5 25.6
2014-Aug-28 14:00N 23°57' W 119°06'0 0.2 25.3
2014-Aug-28 12:00N 23°56' W 119°06'1 0.5 25.3
2014-Aug-28 11:00N 23°56' W 119°07'1 0.4 25.3
2014-Aug-28 07:00N 23°55' W 119°06'0 0.2 25.3
2014-Aug-28 06:00N 23°55' W 119°06'1 0.5 25.4
2014-Aug-28 04:00N 23°54' W 119°05'0 0.0 25.4
2014-Aug-28 03:00N 23°54' W 119°05'1 0.5 25.4
2014-Aug-28 00:00N 23°54' W 119°03'1 0.7 25.4
2014-Aug-27 23:00N 23°55' W 119°03'0 0.4 25.4
2014-Aug-27 22:00N 23°55' W 119°03'1 0.5 25.4
2014-Aug-27 21:00N 23°55' W 119°02'0 0.0 25.4
2014-Aug-27 20:00N 23°55' W 119°02'1 1.3 25.3
2014-Aug-27 19:00N 23°56' W 119°02'1 0.8 25.3
2014-Aug-27 18:00N 23°56' W 119°01'0 0.0 25.3
2014-Aug-27 17:00N 23°56' W 119°01'3 0.7 25.2
2014-Aug-27 13:00N 23°58' W 119°03'1 0.6 25.2
2014-Aug-27 11:00N 23°59' W 119°04'0 0.0 25.2
2014-Aug-27 10:00N 23°59' W 119°04'1 1.0 25.2
2014-Aug-27 09:00N 23°59' W 119°05'4 0.9 25.2
2014-Aug-27 05:00N 23°57' W 119°08'0 0.0 25.3
2014-Aug-27 04:00N 23°57' W 119°08'1 0.7 25.3
2014-Aug-27 03:00N 23°56' W 119°08'4 0.8 25.3
2014-Aug-26 22:00N 23°52' W 119°08'1 1.5 25.3
2014-Aug-26 21:00N 23°51' W 119°07'0 0.2 25.3
2014-Aug-26 20:00N 23°50' W 119°07'2 1.1 25.4
2014-Aug-26 18:00N 23°49' W 119°05'0 0.4 25.4
2014-Aug-26 17:00N 23°49' W 119°05'1 0.9 25.4
2014-Aug-26 16:00N 23°48' W 119°04'0 0.4 25.4
2014-Aug-26 15:00N 23°48' W 119°04'1 0.9 25.5
2014-Aug-26 14:00N 23°48' W 119°03'0 0.3 25.5
2014-Aug-26 13:00N 23°47' W 119°03'1 1.4 25.6
2014-Aug-26 12:00N 23°47' W 119°02'0 0.3 25.6
2014-Aug-26 11:00N 23°47' W 119°01'1 0.2 25.6
2014-Aug-26 08:00N 23°46' W 119°01'2 1.0 25.7
2014-Aug-26 06:00N 23°46' W 118°59'3 0.6 25.7
2014-Aug-26 01:00N 23°46' W 118°55'1 1.0 25.9
2014-Aug-26 00:00N 23°47' W 118°55'1 0.5 25.9
2014-Aug-25 22:00N 23°48' W 118°54'1 0.3 25.9
2014-Aug-25 20:00N 23°47' W 118°55'1 0.7 25.8
2014-Aug-25 19:00N 23°48' W 118°55'0 0.4 25.8
2014-Aug-25 18:00N 23°48' W 118°55'0 0.2 25.8
2014-Aug-25 17:00N 23°48' W 118°55'0 0.0 25.7
2014-Aug-25 16:00N 23°48' W 118°55'1 0.3 25.7
2014-Aug-25 14:00N 23°48' W 118°55'1 0.9 25.7
2014-Aug-25 13:00N 23°47' W 118°54'0 0.3 25.7
2014-Aug-25 12:00N 23°47' W 118°54'0 0.0 25.7
2014-Aug-25 11:00N 23°47' W 118°54'1 0.2 25.7
2014-Aug-25 05:00N 23°47' W 118°53'1 0.7 25.8
2014-Aug-25 04:00N 23°47' W 118°53'0 0.0 25.9
2014-Aug-25 03:00N 23°47' W 118°53'1 0.1 26.0
2014-Aug-24 23:00N 23°47' W 118°52'0 0.4 26.2
2014-Aug-24 22:00N 23°47' W 118°52'0 0.1 26.2
2014-Aug-24 19:00N 23°47' W 118°52'1 0.1 26.1
2014-Aug-24 15:00N 23°47' W 118°51'1 0.3 25.8
2014-Aug-24 13:00N 23°47' W 118°51'0 0.4 25.8
2014-Aug-24 12:00N 23°48' W 118°51'0 0.2 25.9
2014-Aug-24 11:00N 23°48' W 118°51'2 0.3 25.9
2014-Aug-24 06:00N 23°50' W 118°50'0 0.3 26.1
2014-Aug-24 05:00N 23°50' W 118°50'1 0.6 26.1
2014-Aug-24 04:00N 23°50' W 118°51'0 0.0 26.2
2014-Aug-24 03:00N 23°50' W 118°51'0 0.3 26.2
2014-Aug-24 02:00N 23°50' W 118°51'0 0.1 26.3
2014-Aug-24 01:00N 23°50' W 118°51'0 0.1 26.5
2014-Aug-24 00:00N 23°50' W 118°51'0 0.4 26.5
2014-Aug-23 23:00N 23°50' W 118°51'1 0.1 26.5
2014-Aug-23 17:00N 23°50' W 118°51'1 0.2 25.5
2014-Aug-23 12:00N 23°49' W 118°50'0 0.4 25.3
2014-Aug-23 11:00N 23°49' W 118°50'2 0.5 25.3
2014-Aug-23 06:00N 23°51' W 118°49'1 0.2 25.3
2014-Aug-23 02:00N 23°52' W 118°49'0 0.4 25.3
2014-Aug-23 01:00N 23°52' W 118°49'1 0.5 25.4
2014-Aug-22 23:00N 23°53' W 118°50'1 0.3 25.4
2014-Aug-22 21:00N 23°53' W 118°50'0 0.2 25.3
2014-Aug-22 19:00N 23°53' W 118°50'2 0.6 25.2
2014-Aug-22 16:00N 23°52' W 118°52'0 0.2 25.1
2014-Aug-22 14:00N 23°52' W 118°52'1 1.2 25.1
2014-Aug-22 13:00N 23°51' W 118°51'0 0.2 25.1
2014-Aug-22 12:00N 23°51' W 118°51'0 0.3 25.1
2014-Aug-22 11:00N 23°51' W 118°51'0 0.1 25.1
2014-Aug-22 09:00N 23°51' W 118°51'1 0.4 25.1
2014-Aug-22 06:00N 23°51' W 118°50'   25.1

Dump ship's entire track history